Evelyn Maersk — OXHV2 — position and weather

sailwx.info

Track history (hours):
 
Tides and Currents Weather Stations Pressure Air Temp Water Temp Dewpoint Dewpoint Depression Visibility Wind Speed Wind Dir Waves Ship Positions

Evelyn Maersk

Last reported at 2016-May-05 06:33 UTC. Time now 2016-May-05 06:37 UTC.
Position N 51°23' E 002°42'.

Length 398 m; draft 14 m.

Type: Ship (hazmat cat A). MMSI: 220496000.

Date/timePositionNaut miles runAvg speedWind from/ knotsBaromVisibWave heightAir tempDewpointWater temp
2016-May-05 06:33N 51°23' E 002°42'4 4.3
2016-May-05 05:33N 51°27' E 002°40'0 0.3
2016-May-05 04:31N 51°27' E 002°40'0 0.1
2016-May-05 03:07N 51°27' E 002°40'0 0.1
2016-May-05 02:16N 51°27' E 002°40'0 0.0
2016-May-05 01:31N 51°27' E 002°40'0 0.0
2016-May-05 00:31N 51°27' E 002°40'0 0.0
2016-May-04 23:31N 51°27' E 002°40'0 0.0
2016-May-04 22:32N 51°27' E 002°40'0 0.2
2016-May-04 21:31N 51°27' E 002°40'0 0.2
2016-May-04 20:31N 51°27' E 002°40'0 0.0
2016-May-04 17:31N 51°27' E 002°40'0 0.0
2016-May-04 16:25N 51°27' E 002°40'0 0.0
2016-May-04 15:31N 51°27' E 002°40'2 1.6
2016-May-04 14:34N 51°26' E 002°42'0 0.3
2016-May-04 13:33N 51°26' E 002°42'3 2.7
2016-May-04 12:33N 51°23' E 002°40'1211.6
2016-May-04 11:33N 51°19' E 002°23'1312.8
2016-May-04 10:34N 51°13' E 002°05'1313.4
2016-May-04 09:34N 51°07' E 001°46'1414.3
2016-May-04 08:33N 50°56' E 001°31'1414.1
2016-May-04 07:33N 50°43' E 001°23'4013.3
2016-May-04 04:34N 50°24' E 000°28'1313.0
2016-May-04 03:33N 50°21' E 000°08'1212.2
2016-May-04 02:33N 50°20' W 000°11'1111.3
2016-May-04 01:34N 50°23' W 000°28'1211.7
2016-May-04 00:33N 50°30' W 000°43'1211.8
2016-May-03 23:34N 50°38' W 000°57'1010.2
2016-May-03 22:33N 50°45' W 001°07'9 8.6
2016-May-03 21:34N 50°50' W 001°19'7 6.6
2016-May-03 20:33N 50°54' W 001°26'0 0.1
2016-May-03 19:32N 50°54' W 001°27'0 0.0
2016-May-03 18:32N 50°54' W 001°27'0 0.0
2016-May-03 17:32N 50°54' W 001°27'0 0.0
2016-May-03 16:32N 50°54' W 001°27'0 0.0
2016-May-03 15:26N 50°54' W 001°27'0 0.0
2016-May-03 14:23N 50°54' W 001°27'0 0.0
2016-May-03 13:32N 50°54' W 001°27'0 0.0
2016-May-03 12:29N 50°54' W 001°27'0 0.0
2016-May-03 11:29N 50°54' W 001°27'0 0.0
2016-May-03 10:32N 50°54' W 001°27'0 0.0
2016-May-03 08:32N 50°54' W 001°27'0 0.0
2016-May-03 07:32N 50°54' W 001°27'0 0.0
2016-May-03 06:29N 50°54' W 001°27'0 0.0
2016-May-03 05:32N 50°54' W 001°27'0 0.0
2016-May-03 04:29N 50°54' W 001°27'0 0.0
2016-May-03 03:32N 50°54' W 001°27'0 0.0
2016-May-03 02:29N 50°54' W 001°27'0 0.0
2016-May-03 01:32N 50°54' W 001°27'0 0.0
2016-May-03 00:32N 50°54' W 001°27'0 0.0
2016-May-02 23:32N 50°54' W 001°27'0 0.1
2016-May-02 22:33N 50°54' W 001°27'4 3.7
2016-May-02 21:33N 50°52' W 001°22'7 7.2
2016-May-02 20:33N 50°46' W 001°15'1313.4
2016-May-02 19:34N 50°40' W 000°57'9 8.5
2016-May-02 18:33N 50°32' W 001°01'1515.0
2016-May-02 17:33N 50°22' W 001°19'5723.1
2016-May-02 15:05N 49°54' W 002°36'1223.4
2016-May-02 14:33N 49°50' W 002°54'2323.1
2016-May-02 13:34N 49°36' W 003°24'5722.9
2016-May-02 11:05N 49°09' W 004°40'1822.8
2016-May-02 10:18N 49°00' W 005°03'1722.7
2016-May-02 09:33N 48°52' W 005°26'2120.9
2016-May-02 08:33N 48°35' W 005°43'2722.1
2016-May-02 07:19N 48°10' W 006°02'3728.0
2016-May-02 06:00N 47°36' W 006°24'37520.9 260 / 191025.2 5.4 1.014.3 9.512.3
2016-May-01 12:00N 41°48' W 009°42'12020.0 020 / 231026.510.8 2.518.010.614.2
2016-May-01 06:00N 39°48' W 009°48'3921.7 040 / 231022.610.8 3.017.113.514.9
2016-May-01 04:12N 39°09' W 009°49'1320.6
2016-May-01 03:33N 38°56' W 009°50'2020.5
2016-May-01 02:33N 38°36' W 009°47'2120.7
2016-May-01 01:33N 38°15' W 009°40'2121.3
2016-May-01 00:33N 37°54' W 009°34'2221.1
2016-Apr-30 23:31N 37°33' W 009°28'2121.3
2016-Apr-30 22:32N 37°13' W 009°24'6218.8
2016-Apr-30 19:16N 36°32' W 008°26'1521.3
2016-Apr-30 18:33N 36°27' W 008°08'129 5.8
2016-Apr-29 20:22N 35°57' W 005°32'8 9.6
2016-Apr-29 19:34N 36°00' W 005°23'5 4.6
2016-Apr-29 18:34N 36°02' W 005°18'4 4.4
2016-Apr-29 17:33N 36°03' W 005°13'50 9.0
2016-Apr-29 12:00N 36°12' W 004°12'14323.8 090 / 141014.110.8 20.716.917.1
2016-Apr-29 06:00N 35°30' W 001°24'40122.3 060 / 161013.910.8 1.023.913.718.2
2016-Apr-28 12:00N 37°18' E 006°36'11619.3 270 / 171007.6 5.4 20.017.717.6
2016-Apr-28 06:00N 37°36' E 009°00'1124.0 090 / 181007.410.8 1.524.522.717.3
2016-Apr-28 05:32N 37°37' E 009°14'2020.5
2016-Apr-28 04:33N 37°37' E 009°39'2020.0
2016-Apr-28 03:33N 37°38' E 010°04'2019.9
2016-Apr-28 02:32N 37°36' E 010°30'2020.2
2016-Apr-28 01:33N 37°31' E 010°54'2920.3
2016-Apr-28 00:06N 37°21' E 011°29'1220.5
2016-Apr-27 23:33N 37°16' E 011°42'2920.2
2016-Apr-27 22:06N 37°02' E 012°14'2019.9
2016-Apr-27 21:05N 36°53' E 012°37'1420.2
2016-Apr-27 20:23N 36°46' E 012°53'3820.0
2016-Apr-27 18:30N 36°35' E 013°37'1920.2
2016-Apr-27 17:33N 36°29' E 014°00'2020.2
2016-Apr-27 16:33N 36°23' E 014°24'2020.2
2016-Apr-27 15:33N 36°18' E 014°48'7220.1
2016-Apr-27 12:00N 35°54' E 016°12'917.9 180 / 231013.7 5.4 2.018.215.018.0
2016-Apr-27 11:29N 35°54' E 016°23'35820.5
2016-Apr-26 18:00N 34°00' E 023°18'10918.2 320 / 371012.310.8 4.016.213.919.1
2016-Apr-26 12:00N 33°30' E 025°24'12120.2 330 / 301008.4 5.4 18.812.919.5
2016-Apr-26 06:00N 32°54' E 027°42'8418.4 320 / 111003.5 5.4 1.524.719.420.3
2016-Apr-26 01:28N 32°31' E 029°17'1920.7
2016-Apr-26 00:34N 32°26' E 029°39'2321.1
2016-Apr-25 23:28N 32°18' E 030°04'1920.8
2016-Apr-25 22:33N 32°12' E 030°26'2120.9
2016-Apr-25 21:33N 32°06' E 030°49'2220.6
2016-Apr-25 20:28N 31°60' E 031°14'1920.6
2016-Apr-25 19:33N 31°54' E 031°36'2020.4
2016-Apr-25 18:34N 31°46' E 031°58'2115.7
2016-Apr-25 17:12N 31°32' E 032°17'914.3
2016-Apr-25 16:33N 31°25' E 032°24'1211.7
2016-Apr-25 15:30N 31°13' E 032°21'8 8.9
2016-Apr-25 14:33N 31°05' E 032°19'1010.0
2016-Apr-25 13:33N 30°55' E 032°19'  
Track history (hours):
 
Tides and Currents Weather Stations Pressure Air Temp Water Temp Dewpoint Dewpoint Depression Visibility Wind Speed Wind Dir Waves Ship Positions

Evelyn Maersk

Last reported at 2016-May-05 06:33 UTC. Time now 2016-May-05 06:37 UTC.
Position N 51°23' E 002°42'.

Length 398 m; draft 14 m.

Type: Ship (hazmat cat A). MMSI: 220496000.

Date/timePositionNaut miles runAvg speedWind from/ knotsBaromVisibWave heightAir tempDewpointWater temp
2016-May-05 06:33N 51°23' E 002°42'4 4.3
2016-May-05 05:33N 51°27' E 002°40'0 0.3
2016-May-05 04:31N 51°27' E 002°40'0 0.1
2016-May-05 03:07N 51°27' E 002°40'0 0.1
2016-May-05 02:16N 51°27' E 002°40'0 0.0
2016-May-05 01:31N 51°27' E 002°40'0 0.0
2016-May-05 00:31N 51°27' E 002°40'0 0.0
2016-May-04 23:31N 51°27' E 002°40'0 0.0
2016-May-04 22:32N 51°27' E 002°40'0 0.2
2016-May-04 21:31N 51°27' E 002°40'0 0.2
2016-May-04 20:31N 51°27' E 002°40'0 0.0
2016-May-04 17:31N 51°27' E 002°40'0 0.0
2016-May-04 16:25N 51°27' E 002°40'0 0.0
2016-May-04 15:31N 51°27' E 002°40'2 1.6
2016-May-04 14:34N 51°26' E 002°42'0 0.3
2016-May-04 13:33N 51°26' E 002°42'3 2.7
2016-May-04 12:33N 51°23' E 002°40'1211.6
2016-May-04 11:33N 51°19' E 002°23'1312.8
2016-May-04 10:34N 51°13' E 002°05'1313.4
2016-May-04 09:34N 51°07' E 001°46'1414.3
2016-May-04 08:33N 50°56' E 001°31'1414.1
2016-May-04 07:33N 50°43' E 001°23'4013.3
2016-May-04 04:34N 50°24' E 000°28'1313.0
2016-May-04 03:33N 50°21' E 000°08'1212.2
2016-May-04 02:33N 50°20' W 000°11'1111.3
2016-May-04 01:34N 50°23' W 000°28'1211.7
2016-May-04 00:33N 50°30' W 000°43'1211.8
2016-May-03 23:34N 50°38' W 000°57'1010.2
2016-May-03 22:33N 50°45' W 001°07'9 8.6
2016-May-03 21:34N 50°50' W 001°19'7 6.6
2016-May-03 20:33N 50°54' W 001°26'0 0.1
2016-May-03 19:32N 50°54' W 001°27'0 0.0
2016-May-03 18:32N 50°54' W 001°27'0 0.0
2016-May-03 17:32N 50°54' W 001°27'0 0.0
2016-May-03 16:32N 50°54' W 001°27'0 0.0
2016-May-03 15:26N 50°54' W 001°27'0 0.0
2016-May-03 14:23N 50°54' W 001°27'0 0.0
2016-May-03 13:32N 50°54' W 001°27'0 0.0
2016-May-03 12:29N 50°54' W 001°27'0 0.0
2016-May-03 11:29N 50°54' W 001°27'0 0.0
2016-May-03 10:32N 50°54' W 001°27'0 0.0
2016-May-03 08:32N 50°54' W 001°27'0 0.0
2016-May-03 07:32N 50°54' W 001°27'0 0.0
2016-May-03 06:29N 50°54' W 001°27'0 0.0
2016-May-03 05:32N 50°54' W 001°27'0 0.0
2016-May-03 04:29N 50°54' W 001°27'0 0.0
2016-May-03 03:32N 50°54' W 001°27'0 0.0
2016-May-03 02:29N 50°54' W 001°27'0 0.0
2016-May-03 01:32N 50°54' W 001°27'0 0.0
2016-May-03 00:32N 50°54' W 001°27'0 0.0
2016-May-02 23:32N 50°54' W 001°27'0 0.1
2016-May-02 22:33N 50°54' W 001°27'4 3.7
2016-May-02 21:33N 50°52' W 001°22'7 7.2
2016-May-02 20:33N 50°46' W 001°15'1313.4
2016-May-02 19:34N 50°40' W 000°57'9 8.5
2016-May-02 18:33N 50°32' W 001°01'1515.0
2016-May-02 17:33N 50°22' W 001°19'5723.1
2016-May-02 15:05N 49°54' W 002°36'1223.4
2016-May-02 14:33N 49°50' W 002°54'2323.1
2016-May-02 13:34N 49°36' W 003°24'5722.9
2016-May-02 11:05N 49°09' W 004°40'1822.8
2016-May-02 10:18N 49°00' W 005°03'1722.7
2016-May-02 09:33N 48°52' W 005°26'2120.9
2016-May-02 08:33N 48°35' W 005°43'2722.1
2016-May-02 07:19N 48°10' W 006°02'3728.0
2016-May-02 06:00N 47°36' W 006°24'37520.9 260 / 191025.2 5.4 1.014.3 9.512.3
2016-May-01 12:00N 41°48' W 009°42'12020.0 020 / 231026.510.8 2.518.010.614.2
2016-May-01 06:00N 39°48' W 009°48'3921.7 040 / 231022.610.8 3.017.113.514.9
2016-May-01 04:12N 39°09' W 009°49'1320.6
2016-May-01 03:33N 38°56' W 009°50'2020.5
2016-May-01 02:33N 38°36' W 009°47'2120.7
2016-May-01 01:33N 38°15' W 009°40'2121.3
2016-May-01 00:33N 37°54' W 009°34'2221.1
2016-Apr-30 23:31N 37°33' W 009°28'2121.3
2016-Apr-30 22:32N 37°13' W 009°24'6218.8
2016-Apr-30 19:16N 36°32' W 008°26'1521.3
2016-Apr-30 18:33N 36°27' W 008°08'129 5.8
2016-Apr-29 20:22N 35°57' W 005°32'8 9.6
2016-Apr-29 19:34N 36°00' W 005°23'5 4.6
2016-Apr-29 18:34N 36°02' W 005°18'4 4.4
2016-Apr-29 17:33N 36°03' W 005°13'50 9.0
2016-Apr-29 12:00N 36°12' W 004°12'14323.8 090 / 141014.110.8 20.716.917.1
2016-Apr-29 06:00N 35°30' W 001°24'40122.3 060 / 161013.910.8 1.023.913.718.2
2016-Apr-28 12:00N 37°18' E 006°36'11619.3 270 / 171007.6 5.4 20.017.717.6
2016-Apr-28 06:00N 37°36' E 009°00'1124.0 090 / 181007.410.8 1.524.522.717.3
2016-Apr-28 05:32N 37°37' E 009°14'2020.5
2016-Apr-28 04:33N 37°37' E 009°39'2020.0
2016-Apr-28 03:33N 37°38' E 010°04'2019.9
2016-Apr-28 02:32N 37°36' E 010°30'2020.2
2016-Apr-28 01:33N 37°31' E 010°54'2920.3
2016-Apr-28 00:06N 37°21' E 011°29'1220.5
2016-Apr-27 23:33N 37°16' E 011°42'2920.2
2016-Apr-27 22:06N 37°02' E 012°14'2019.9
2016-Apr-27 21:05N 36°53' E 012°37'1420.2
2016-Apr-27 20:23N 36°46' E 012°53'3820.0
2016-Apr-27 18:30N 36°35' E 013°37'1920.2
2016-Apr-27 17:33N 36°29' E 014°00'2020.2
2016-Apr-27 16:33N 36°23' E 014°24'2020.2
2016-Apr-27 15:33N 36°18' E 014°48'7220.1
2016-Apr-27 12:00N 35°54' E 016°12'917.9 180 / 231013.7 5.4 2.018.215.018.0
2016-Apr-27 11:29N 35°54' E 016°23'35820.5
2016-Apr-26 18:00N 34°00' E 023°18'10918.2 320 / 371012.310.8 4.016.213.919.1
2016-Apr-26 12:00N 33°30' E 025°24'12120.2 330 / 301008.4 5.4 18.812.919.5
2016-Apr-26 06:00N 32°54' E 027°42'8418.4 320 / 111003.5 5.4 1.524.719.420.3
2016-Apr-26 01:28N 32°31' E 029°17'1920.7
2016-Apr-26 00:34N 32°26' E 029°39'2321.1
2016-Apr-25 23:28N 32°18' E 030°04'1920.8
2016-Apr-25 22:33N 32°12' E 030°26'2120.9
2016-Apr-25 21:33N 32°06' E 030°49'2220.6
2016-Apr-25 20:28N 31°60' E 031°14'1920.6
2016-Apr-25 19:33N 31°54' E 031°36'2020.4
2016-Apr-25 18:34N 31°46' E 031°58'2115.7
2016-Apr-25 17:12N 31°32' E 032°17'914.3
2016-Apr-25 16:33N 31°25' E 032°24'1211.7
2016-Apr-25 15:30N 31°13' E 032°21'8 8.9
2016-Apr-25 14:33N 31°05' E 032°19'1010.0
2016-Apr-25 13:33N 30°55' E 032°19'  

Dump ship's entire track history